Time;durP1;ratioP1;P1;durP2;ratioP2;P2;SDS_P1;SDS_P2;PMS_P1;PMS_P2;Temp;Humidity;BMP_temperature;BMP_pressure;BME280_temperature;BME280_humidity;BME280_pressure;Samples;Min_cycle;Max_cycle;Signal;HPM_P1;HPM_P2
2023/10/26 00:01:33;;;;;;;4.17;3.83;;;19.90;67.50;;;;;;4954200;28;20439;-81
2023/10/26 00:04:02;;;;;;;5.20;3.90;;;19.90;67.60;;;;;;4953922;28;20510;-82
2023/10/26 00:06:33;;;;;;;4.80;4.37;;;19.90;67.60;;;;;;4960446;28;20451;-82
2023/10/26 00:09:01;;;;;;;4.00;3.70;;;19.90;67.50;;;;;;4965380;28;20483;-80
2023/10/26 00:11:30;;;;;;;4.13;3.77;;;19.90;67.80;;;;;;4965289;28;20453;-83
2023/10/26 00:13:59;;;;;;;4.93;3.87;;;19.90;67.50;;;;;;4959064;28;20459;-83
2023/10/26 00:16:27;;;;;;;4.50;4.10;;;19.90;67.90;;;;;;4958140;28;20452;-82
2023/10/26 00:18:56;;;;;;;6.67;4.10;;;19.90;67.90;;;;;;4953274;28;20943;-83
2023/10/26 00:21:24;;;;;;;3.93;3.60;;;19.90;67.80;;;;;;4959358;28;20451;-82
2023/10/26 00:23:54;;;;;;;4.07;3.77;;;19.90;67.80;;;;;;4960769;28;20447;-82
2023/10/26 00:26:23;;;;;;;4.43;3.50;;;19.90;68.00;;;;;;4960427;28;20458;-83
2023/10/26 00:28:52;;;;;;;3.97;3.67;;;19.90;67.80;;;;;;4959785;28;20485;-83
2023/10/26 00:31:21;;;;;;;3.57;3.37;;;19.90;68.00;;;;;;4958850;28;20455;-81
2023/10/26 00:33:52;;;;;;;4.13;3.73;;;19.90;68.00;;;;;;4954547;28;20453;-81
2023/10/26 00:36:22;;;;;;;4.40;3.73;;;19.90;68.30;;;;;;4957331;28;20451;-82
2023/10/26 00:38:53;;;;;;;4.53;3.80;;;19.90;68.20;;;;;;4957759;28;20520;-82
2023/10/26 00:41:26;;;;;;;4.30;4.00;;;19.90;68.10;;;;;;4964064;28;20459;-80
2023/10/26 00:43:56;;;;;;;3.60;3.40;;;19.90;68.50;;;;;;4954336;28;20447;-81
2023/10/26 00:46:25;;;;;;;4.00;3.80;;;19.90;68.40;;;;;;4963489;28;20451;-83
2023/10/26 00:48:54;;;;;;;4.00;3.70;;;19.90;68.50;;;;;;4962000;28;20455;-82
2023/10/26 00:51:23;;;;;;;4.20;3.80;;;19.90;68.50;;;;;;4957428;28;20469;-82
2023/10/26 00:53:53;;;;;;;4.70;4.30;;;19.90;68.40;;;;;;4957889;28;20451;-81
2023/10/26 00:56:24;;;;;;;4.13;3.73;;;19.90;68.50;;;;;;4957670;28;20458;-83
2023/10/26 00:58:54;;;;;;;4.00;3.70;;;19.90;68.60;;;;;;4962479;28;20451;-82
2023/10/26 01:01:25;;;;;;;4.17;3.87;;;19.90;68.70;;;;;;4958353;28;20473;-82
2023/10/26 01:03:54;;;;;;;3.93;3.63;;;19.90;68.40;;;;;;4957768;28;20453;-80
2023/10/26 01:06:23;;;;;;;3.57;3.37;;;19.90;68.60;;;;;;4956574;28;20542;-80
2023/10/26 01:08:53;;;;;;;3.80;3.60;;;19.90;68.90;;;;;;4956173;28;20478;-85
2023/10/26 01:11:23;;;;;;;4.23;3.90;;;19.90;68.90;;;;;;4957250;28;20451;-81
2023/10/26 01:13:52;;;;;;;4.10;3.50;;;19.90;68.70;;;;;;4956059;28;20580;-81
2023/10/26 01:16:22;;;;;;;4.17;3.67;;;19.90;68.90;;;;;;4955750;28;20449;-81
2023/10/26 01:18:50;;;;;;;3.83;3.53;;;19.90;68.90;;;;;;4956488;28;20448;-81
2023/10/26 01:21:20;;;;;;;4.07;3.77;;;19.90;68.90;;;;;;4955468;28;20451;-81
2023/10/26 01:23:54;;;;;;;5.13;3.80;;;19.90;68.80;;;;;;4956471;28;20546;-83
2023/10/26 01:26:24;;;;;;;3.33;3.20;;;19.90;69.20;;;;;;4955827;28;20454;-82
2023/10/26 01:28:53;;;;;;;3.33;3.10;;;19.90;68.80;;;;;;4956335;28;20998;-80
2023/10/26 01:31:23;;;;;;;3.70;3.50;;;19.90;69.10;;;;;;4960539;28;20474;-81
2023/10/26 01:33:53;;;;;;;4.47;4.17;;;19.90;69.20;;;;;;4956678;28;20463;-81
2023/10/26 01:36:23;;;;;;;3.50;3.20;;;19.90;69.20;;;;;;4957530;28;20451;-81
2023/10/26 01:38:55;;;;;;;3.43;3.17;;;19.90;69.20;;;;;;4955123;28;20462;-84
2023/10/26 01:41:24;;;;;;;3.77;3.57;;;19.90;69.20;;;;;;4953689;28;20458;-84
2023/10/26 01:43:54;;;;;;;4.27;3.93;;;19.80;69.10;;;;;;4955641;28;20451;-80
2023/10/26 01:46:23;;;;;;;3.67;3.43;;;19.90;69.50;;;;;;4966231;28;20457;-89
2023/10/26 01:48:53;;;;;;;3.97;3.70;;;19.90;69.60;;;;;;4974764;28;20447;-89
2023/10/26 01:51:22;;;;;;;3.67;3.17;;;19.90;69.60;;;;;;4974998;28;20479;-86
2023/10/26 01:53:56;;;;;;;3.37;3.17;;;19.90;69.30;;;;;;4956874;28;20451;-80
2023/10/26 01:56:25;;;;;;;3.70;3.50;;;19.80;69.60;;;;;;4955929;28;20510;-83
2023/10/26 01:58:54;;;;;;;3.97;3.70;;;19.80;69.60;;;;;;4955693;28;20451;-79
2023/10/26 02:01:24;;;;;;;3.50;3.30;;;19.80;69.60;;;;;;4954632;28;20474;-84
2023/10/26 02:03:53;;;;;;;3.20;3.00;;;19.80;69.40;;;;;;4954757;28;20506;-79
2023/10/26 02:06:22;;;;;;;3.40;3.20;;;19.80;69.80;;;;;;4954215;28;20502;-81
2023/10/26 02:08:54;;;;;;;4.10;3.50;;;19.80;69.70;;;;;;4950394;28;20447;-82
2023/10/26 02:11:24;;;;;;;3.30;3.10;;;19.80;69.90;;;;;;4950337;28;20502;-86
2023/10/26 02:13:55;;;;;;;3.70;3.50;;;19.80;70.00;;;;;;4956734;28;20456;-81
2023/10/26 02:16:24;;;;;;;3.27;3.10;;;19.80;69.80;;;;;;4956239;28;20482;-80
2023/10/26 02:18:55;;;;;;;3.47;3.27;;;19.80;70.20;;;;;;4952021;28;20464;-85
2023/10/26 02:21:25;;;;;;;4.83;3.30;;;19.80;70.10;;;;;;4952971;28;20439;-86
2023/10/26 02:23:57;;;;;;;3.60;3.40;;;19.80;70.00;;;;;;4963018;28;20534;-83
2023/10/26 02:26:27;;;;;;;3.40;3.20;;;19.80;70.10;;;;;;4956567;28;20802;-82
2023/10/26 02:28:57;;;;;;;3.87;3.57;;;19.80;69.90;;;;;;4956319;28;20439;-82
2023/10/26 02:31:26;;;;;;;4.10;3.70;;;19.80;70.50;;;;;;4956205;28;20472;-81
2023/10/26 02:33:55;;;;;;;3.30;3.10;;;19.80;70.10;;;;;;4957979;28;20518;-83
2023/10/26 02:36:25;;;;;;;3.70;3.50;;;19.80;70.40;;;;;;4960965;28;20451;-81
2023/10/26 02:38:59;;;;;;;3.83;3.53;;;19.80;70.30;;;;;;4961036;29;20543;-81
2023/10/26 02:41:29;;;;;;;3.50;3.30;;;19.80;70.30;;;;;;4960396;28;20564;-81
2023/10/26 02:43:58;;;;;;;3.47;3.27;;;19.70;70.30;;;;;;4961023;28;20511;-81
2023/10/26 02:46:27;;;;;;;3.33;3.13;;;19.80;70.60;;;;;;4960633;28;20450;-81
2023/10/26 02:48:57;;;;;;;3.60;3.30;;;19.80;70.50;;;;;;4960002;28;20473;-81
2023/10/26 02:51:26;;;;;;;3.00;2.90;;;19.70;70.40;;;;;;4955853;28;20554;-79
2023/10/26 02:53:55;;;;;;;4.07;3.70;;;19.70;70.90;;;;;;4956757;28;20474;-81
2023/10/26 02:56:24;;;;;;;3.07;2.93;;;19.70;70.50;;;;;;4958160;28;20463;-81
2023/10/26 02:58:53;;;;;;;2.90;2.80;;;19.70;70.90;;;;;;4956214;28;20486;-82
2023/10/26 03:01:22;;;;;;;3.60;3.40;;;19.80;70.70;;;;;;4951560;29;20474;-81
2023/10/26 03:03:52;;;;;;;3.67;3.47;;;19.70;70.70;;;;;;4959202;28;20501;-82
2023/10/26 03:09:43;;;;;;;3.17;3.03;;;19.70;71.10;;;;;;4976345;28;20458;-81
2023/10/26 03:12:30;;;;;;;3.20;2.90;;;19.80;71.40;;;;;;4966966;28;20481;-82
2023/10/26 03:19:27;;;;;;;3.37;3.17;;;19.80;71.50;;;;;;4906676;28;20443;-81
2023/10/26 03:22:18;;;;;;;3.50;3.13;;;19.70;71.40;;;;;;4953520;28;20471;-81
2023/10/26 03:25:26;;;;;;;;;;;;;;;;;;;;;
2023/10/26 03:28:38;;;;;;;3.33;3.13;;;19.70;71.30;;;;;;4953256;28;20557;-83
2023/10/26 03:31:13;;;;;;;4.50;4.10;;;19.70;71.60;;;;;;4947513;28;20472;-80
2023/10/26 03:34:29;;;;;;;3.20;3.10;;;19.80;71.60;;;;;;4952750;28;20451;-80
2023/10/26 03:37:57;;;;;;;3.20;3.00;;;19.80;71.40;;;;;;4934622;28;20456;-81
2023/10/26 03:45:39;;;;;;;3.43;3.23;;;19.70;71.80;;;;;;4870545;29;20442;-82
2023/10/26 03:48:39;;;;;;;3.37;3.10;;;19.70;71.80;;;;;;4861960;29;20476;-82
2023/10/26 03:51:22;;;;;;;3.17;3.03;;;19.70;71.80;;;;;;4858431;29;20488;-81
2023/10/26 04:13:36;;;;;;;3.37;3.17;;;19.70;72.30;;;;;;4765681;29;20462;-81
2023/10/26 04:16:54;;;;;;;3.47;3.17;;;19.70;72.40;;;;;;4820782;29;20490;-81
2023/10/26 04:19:41;;;;;;;3.70;3.40;;;19.70;72.20;;;;;;4769317;29;20463;-81
2023/10/26 04:22:10;;;;;;;2.97;2.87;;;19.70;72.20;;;;;;4831486;29;20452;-82
2023/10/26 04:25:27;;;;;;;3.00;2.90;;;19.60;72.10;;;;;;4859784;29;20487;-83
2023/10/26 04:28:21;;;;;;;3.20;3.00;;;19.70;72.60;;;;;;4851694;29;20535;-81
2023/10/26 04:31:24;;;;;;;3.50;3.30;;;19.70;72.40;;;;;;4930071;29;20441;-82
2023/10/26 04:49:00;;;;;;;2.90;2.80;;;19.60;72.80;;;;;;4927025;29;20503;-82
2023/10/26 04:54:31;;;;;;;2.90;2.80;;;19.60;72.70;;;;;;4933066;29;20457;-79
2023/10/26 04:57:32;;;;;;;2.90;2.80;;;19.60;72.50;;;;;;4933597;29;20523;-84
2023/10/26 05:08:17;;;;;;;3.40;3.20;;;19.60;72.90;;;;;;4828486;29;20459;-81
2023/10/26 05:12:07;;;;;;;3.30;3.10;;;19.60;73.10;;;;;;4872437;29;20454;-82
2023/10/26 05:14:47;;;;;;;3.10;3.00;;;19.60;73.10;;;;;;4789719;29;20477;-83
2023/10/26 05:17:17;;;;;;;3.33;3.13;;;19.60;73.00;;;;;;4810044;29;21010;-83
2023/10/26 05:19:47;;;;;;;3.33;3.13;;;19.60;72.70;;;;;;4912830;29;20456;-82
2023/10/26 05:22:19;;;;;;;3.33;3.13;;;19.60;72.70;;;;;;4927139;29;20449;-81
2023/10/26 05:24:48;;;;;;;3.33;3.13;;;19.60;73.00;;;;;;4937696;29;20480;-81
2023/10/26 05:27:20;;;;;;;2.83;2.70;;;19.60;73.00;;;;;;4924851;29;20537;-81
2023/10/26 05:29:52;;;;;;;2.90;2.80;;;19.60;73.20;;;;;;4925799;29;20511;-84
2023/10/26 05:32:22;;;;;;;2.93;2.77;;;19.60;72.90;;;;;;4930808;29;20479;-81
2023/10/26 05:34:53;;;;;;;3.10;3.00;;;19.60;73.00;;;;;;4937334;29;20974;-85
2023/10/26 05:37:22;;;;;;;3.40;3.20;;;19.60;73.20;;;;;;4928530;29;20770;-81
2023/10/26 05:39:52;;;;;;;3.17;2.97;;;19.60;73.10;;;;;;4936225;29;20452;-83
2023/10/26 05:42:22;;;;;;;2.90;2.80;;;19.60;73.00;;;;;;4925491;29;20487;-83
2023/10/26 05:44:51;;;;;;;3.17;3.00;;;19.60;73.40;;;;;;4937665;29;20451;-82
2023/10/26 05:47:20;;;;;;;3.23;3.03;;;19.60;73.00;;;;;;4937519;29;20518;-83
2023/10/26 05:49:51;;;;;;;3.10;2.90;;;19.60;73.20;;;;;;4934326;29;20456;-83
2023/10/26 05:52:23;;;;;;;2.90;2.80;;;19.60;73.60;;;;;;4926926;29;20483;-82
2023/10/26 05:54:53;;;;;;;2.67;2.57;;;19.60;73.20;;;;;;4922654;29;20479;-83
2023/10/26 05:57:23;;;;;;;2.90;2.80;;;19.60;73.40;;;;;;4932994;29;20950;-82
2023/10/26 05:59:55;;;;;;;2.63;2.53;;;19.60;73.50;;;;;;4937236;29;20511;-83
2023/10/26 06:02:24;;;;;;;2.50;2.40;;;19.60;73.10;;;;;;4925033;29;20449;-82
2023/10/26 06:04:55;;;;;;;2.97;2.77;;;19.60;73.50;;;;;;4936936;29;21065;-82
2023/10/26 06:07:32;;;;;;;2.57;2.47;;;19.60;73.30;;;;;;4924594;29;20472;-84
2023/10/26 06:27:05;;;;;;;2.47;2.37;;;19.50;74.00;;;;;;4800233;29;20477;-83
2023/10/26 06:52:43;;;;;;;2.97;2.77;;;19.50;74.20;;;;;;4770991;29;20457;-81
2023/10/26 07:07:36;;;;;;;;;;;;;;;;;;;;;
2023/10/26 07:14:52;;;;;;;;;;;;;;;;;;;;;
2023/10/26 07:43:24;;;;;;;3.33;3.13;;;19.70;74.20;;;;;;4808844;29;20446;-80
2023/10/26 08:06:08;;;;;;;3.40;3.20;;;20.10;74.40;;;;;;4936319;29;20487;-81
2023/10/26 08:24:06;;;;;;;2.67;2.57;;;20.70;73.80;;;;;;4839788;29;20446;-81
2023/10/26 08:34:22;;;;;;;2.80;2.70;;;21.10;73.10;;;;;;4789975;29;20482;-81
2023/10/26 08:37:13;;;;;;;3.70;3.07;;;21.10;73.30;;;;;;4889027;29;21048;-81
2023/10/26 08:39:53;;;;;;;3.10;3.00;;;21.20;73.30;;;;;;4879158;29;20490;-82
2023/10/26 08:43:00;;;;;;;3.13;2.93;;;21.20;73.20;;;;;;4883072;29;20522;-82
2023/10/26 08:45:50;;;;;;;3.23;3.03;;;21.30;73.70;;;;;;4882437;29;20485;-82
2023/10/26 08:52:46;;;;;;;3.30;3.10;;;21.30;74.00;;;;;;4836320;29;20457;-82
2023/10/26 09:13:05;;;;;;;2.87;2.77;;;22.60;72.70;;;;;;4896617;29;20424;-80
2023/10/26 09:19:15;;;;;;;3.70;3.40;;;22.60;73.60;;;;;;4951705;28;20802;-80
2023/10/26 09:22:07;;;;;;;3.07;2.93;;;22.90;74.10;;;;;;4962307;28;20514;-81
2023/10/26 09:24:37;;;;;;;5.73;2.97;;;23.20;74.10;;;;;;4947001;28;20419;-81
2023/10/26 09:27:08;;;;;;;3.43;3.23;;;23.40;73.30;;;;;;4954566;28;20449;-79
2023/10/26 09:29:37;;;;;;;3.50;3.33;;;23.50;72.90;;;;;;4961487;28;20429;-82
2023/10/26 09:32:09;;;;;;;3.77;3.53;;;23.60;72.40;;;;;;4960007;28;20450;-81
2023/10/26 09:35:06;;;;;;;3.50;3.30;;;23.70;72.80;;;;;;4954661;28;20476;-80
2023/10/26 09:38:09;;;;;;;4.23;3.93;;;23.70;71.90;;;;;;4954390;28;20450;-83
2023/10/26 09:40:58;;;;;;;4.10;3.80;;;23.80;71.90;;;;;;4954034;28;20470;-81
2023/10/26 09:43:44;;;;;;;3.73;3.53;;;23.80;71.70;;;;;;4956667;28;20443;-82
2023/10/26 09:46:36;;;;;;;3.80;3.60;;;23.90;71.50;;;;;;4956346;28;20526;-80
2023/10/26 09:49:48;;;;;;;4.93;4.03;;;23.90;71.40;;;;;;4953078;28;20479;-81
2023/10/26 09:53:00;;;;;;;4.07;3.87;;;24.10;71.80;;;;;;4938019;28;20551;-81
2023/10/26 09:55:58;;;;;;;3.90;3.70;;;24.30;72.00;;;;;;4947534;28;20423;-79
2023/10/26 10:02:19;;;;;;;4.77;4.23;;;24.70;71.20;;;;;;4825758;29;20442;-80
2023/10/26 10:05:47;;;;;;;4.10;3.80;;;24.90;70.80;;;;;;4875691;29;20421;-80
2023/10/26 10:08:20;;;;;;;4.07;3.77;;;25.10;70.30;;;;;;4876368;29;20466;-79
2023/10/26 10:11:29;;;;;;;3.90;3.60;;;25.40;69.80;;;;;;4878594;29;20473;-80
2023/10/26 10:14:01;;;;;;;14.73;12.80;;;25.40;70.40;;;;;;4877911;29;20470;-78
2023/10/26 10:16:50;;;;;;;16.10;12.53;;;24.90;57.90;;;;;;4878709;29;20429;-78
2023/10/26 10:19:19;;;;;;;16.23;12.83;;;24.10;55.80;;;;;;4879202;29;20458;-78
2023/10/26 10:21:47;;;;;;;15.93;13.23;;;23.60;56.40;;;;;;4881242;29;20460;-78
2023/10/26 10:24:50;;;;;;;17.50;13.37;;;23.30;55.10;;;;;;4885676;29;20446;-79
2023/10/26 10:27:20;;;;;;;15.67;12.63;;;22.90;56.30;;;;;;4886444;29;20446;-77
2023/10/26 10:29:48;;;;;;;17.80;13.80;;;22.80;56.30;;;;;;4889095;29;20458;-79
2023/10/26 10:32:50;;;;;;;17.10;12.27;;;22.70;57.00;;;;;;4879294;29;20486;-79
2023/10/26 10:35:41;;;;;;;26.20;18.30;;;22.60;56.70;;;;;;4873513;29;20469;-80
2023/10/26 10:38:24;;;;;;;19.33;14.40;;;22.10;58.20;;;;;;4885717;29;20988;-80
2023/10/26 10:41:08;;;;;;;18.60;14.40;;;22.10;57.80;;;;;;4954654;28;20447;-80
2023/10/26 10:43:40;;;;;;;19.70;15.13;;;22.20;57.40;;;;;;4955037;28;20443;-79
2023/10/26 10:46:16;;;;;;;42.97;26.20;;;22.20;57.30;;;;;;4947580;28;20527;-78
2023/10/26 10:51:57;;;;;;;25.67;17.00;;;21.80;58.80;;;;;;5098627;28;20506;-78
2023/10/26 10:54:25;;;;;;;18.70;14.33;;;21.40;58.80;;;;;;5106274;28;20411;-79
2023/10/26 10:57:13;;;;;;;24.03;17.37;;;21.40;61.40;;;;;;5085444;28;20449;-78
2023/10/26 10:59:41;;;;;;;29.37;20.53;;;21.40;59.90;;;;;;5086885;28;20429;-82
2023/10/26 11:02:20;;;;;;;33.37;22.10;;;21.40;61.80;;;;;;5090643;28;20440;-84
2023/10/26 11:05:07;;;;;;;24.40;19.30;;;21.90;62.00;;;;;;5086504;28;20450;-83
2023/10/26 11:08:26;;;;;;;25.73;18.07;;;22.40;60.80;;;;;;5079632;28;20524;-82
2023/10/26 11:18:22;;;;;;;67.93;41.47;;;23.40;60.00;;;;;;5011027;28;20504;-84
2023/10/26 11:27:28;;;;;;;86.60;57.13;;;24.00;60.70;;;;;;5098378;28;20471;-83
2023/10/26 11:30:32;;;;;;;97.63;60.87;;;24.10;60.60;;;;;;5098751;28;20475;-84
2023/10/26 11:33:49;;;;;;;85.90;56.23;;;24.20;60.50;;;;;;5096939;28;20433;-81
2023/10/26 11:37:09;;;;;;;94.10;60.37;;;24.20;61.00;;;;;;5082304;28;20448;-82
2023/10/26 11:40:24;;;;;;;91.80;58.77;;;24.30;61.20;;;;;;5086016;28;20474;-80
2023/10/26 11:50:06;;;;;;;89.10;58.87;;;24.40;60.80;;;;;;5061672;28;20455;-81
2023/10/26 11:56:41;;;;;;;94.20;58.87;;;24.50;61.00;;;;;;5088093;28;20558;-83
2023/10/26 11:59:14;;;;;;;97.03;58.00;;;24.50;61.30;;;;;;5090347;28;20462;-83
2023/10/26 12:02:33;;;;;;;92.40;58.50;;;24.50;61.00;;;;;;5084248;28;20438;-86
2023/10/26 12:09:05;;;;;;;84.47;55.70;;;24.50;61.70;;;;;;5089937;28;20459;-83
2023/10/26 12:11:56;;;;;;;89.13;56.47;;;24.50;61.00;;;;;;5097626;28;20472;-86
2023/10/26 12:14:35;;;;;;;87.90;54.97;;;24.50;61.50;;;;;;5097066;28;20441;-84
2023/10/26 12:17:58;;;;;;;92.53;56.27;;;24.50;62.50;;;;;;5089140;28;20461;-83
2023/10/26 12:28:35;;;;;;;86.97;54.40;;;24.40;62.60;;;;;;5088918;28;20470;-78
2023/10/26 12:31:49;;;;;;;81.73;54.57;;;24.30;62.90;;;;;;5053810;28;20472;-82
2023/10/26 12:34:24;;;;;;;84.03;50.73;;;24.10;63.20;;;;;;5088443;28;20437;-85
2023/10/26 13:00:48;;;;;;;;;;;;;;;;;;;;;
2023/10/26 13:19:27;;;;;;;70.23;47.63;;;23.60;64.60;;;;;;4795626;29;20464;-83
2023/10/26 13:26:38;;;;;;;67.90;47.70;;;23.50;64.60;;;;;;4899695;29;20479;-81
2023/10/26 14:51:25;;;;;;;63.23;42.40;;;22.80;65.50;;;;;;4793034;29;20486;-82
2023/10/26 15:02:00;;;;;;;57.43;39.40;;;22.80;65.50;;;;;;4791537;29;21106;-81
2023/10/26 15:05:11;;;;;;;60.43;40.63;;;22.70;65.50;;;;;;4847715;29;20453;-82
2023/10/26 15:12:48;;;;;;;57.40;38.67;;;22.60;65.60;;;;;;4923521;29;20487;-82
2023/10/26 15:41:55;;;;;;;53.00;34.70;;;22.30;65.90;;;;;;4930551;29;20452;-88
2023/10/26 15:48:49;;;;;;;;;;;;;;;;;;;;;
2023/10/26 15:59:29;;;;;;;50.00;34.83;;;22.10;66.20;;;;;;5161954;22;20479;-83
2023/10/26 16:02:49;;;;;;;45.90;31.93;;;22.10;66.20;;;;;;5022750;28;20416;-83
2023/10/26 16:05:52;;;;;;;44.47;30.57;;;22.10;66.10;;;;;;5048848;28;20442;-85
2023/10/26 16:09:09;;;;;;;50.07;31.53;;;22.00;66.10;;;;;;4986168;28;20549;-83
2023/10/26 16:16:03;;;;;;;44.00;30.87;;;22.00;66.30;;;;;;4966803;28;20398;-83
2023/10/26 16:19:32;;;;;;;46.77;32.80;;;21.90;66.20;;;;;;4935635;28;20463;-83
2023/10/26 16:23:02;;;;;;;43.70;30.27;;;21.90;66.20;;;;;;4863105;29;20452;-84
2023/10/26 16:26:24;;;;;;;45.23;31.80;;;21.90;66.40;;;;;;4894515;29;20454;-83
2023/10/26 16:29:30;;;;;;;42.50;29.30;;;21.80;66.20;;;;;;4945383;28;20462;-84
2023/10/26 16:32:36;;;;;;;43.90;31.23;;;21.80;66.50;;;;;;4958910;29;20478;-83
2023/10/26 16:35:09;;;;;;;40.57;29.03;;;21.80;66.50;;;;;;4958396;29;20443;-82
2023/10/26 16:37:38;;;;;;;41.50;28.60;;;21.80;66.30;;;;;;4962605;28;20557;-81
2023/10/26 16:40:08;;;;;;;42.97;29.60;;;21.80;66.30;;;;;;4960000;28;20477;-79
2023/10/26 16:42:36;;;;;;;42.67;28.87;;;21.70;66.40;;;;;;4953524;28;20506;-82
2023/10/26 16:45:09;;;;;;;38.60;26.80;;;21.70;66.20;;;;;;4956196;28;20454;-81
2023/10/26 16:47:37;;;;;;;38.57;27.70;;;21.70;66.30;;;;;;4956623;28;20494;-80
2023/10/26 16:50:26;;;;;;;36.63;26.00;;;21.70;66.40;;;;;;4956819;29;20451;-80
2023/10/26 16:53:02;;;;;;;37.00;26.00;;;21.70;66.30;;;;;;4984537;28;20465;-81
2023/10/26 16:56:03;;;;;;;40.53;26.83;;;21.70;67.10;;;;;;4996441;28;20651;-80
2023/10/26 17:02:09;;;;;;;36.60;24.70;;;21.60;66.20;;;;;;5075072;28;20403;-80
2023/10/26 17:04:53;;;;;;;34.50;23.73;;;21.60;66.60;;;;;;5015215;28;20524;-82
2023/10/26 17:07:25;;;;;;;34.00;23.50;;;21.60;66.60;;;;;;5035451;28;20472;-81
2023/10/26 17:09:54;;;;;;;32.67;24.00;;;21.60;66.50;;;;;;5079144;28;20445;-80
2023/10/26 17:12:22;;;;;;;32.63;23.63;;;21.60;66.60;;;;;;5077678;28;20470;-77
2023/10/26 17:14:57;;;;;;;31.47;23.20;;;21.60;66.90;;;;;;5072471;28;20457;-78
2023/10/26 17:17:48;;;;;;;29.07;21.63;;;21.50;66.80;;;;;;5067519;28;20471;-79
2023/10/26 17:20:24;;;;;;;38.87;22.83;;;21.50;66.80;;;;;;5079381;28;20473;-79
2023/10/26 17:23:13;;;;;;;35.03;22.27;;;21.50;66.80;;;;;;5068569;28;21018;-79
2023/10/26 17:25:51;;;;;;;33.07;21.73;;;21.50;67.20;;;;;;5069961;28;20455;-80
2023/10/26 17:28:20;;;;;;;26.63;20.63;;;21.50;67.10;;;;;;5073196;28;20487;-78
2023/10/26 17:31:41;;;;;;;33.27;20.73;;;21.40;67.00;;;;;;5080192;28;20433;-80
2023/10/26 17:35:04;;;;;;;26.53;20.50;;;21.50;67.30;;;;;;4903466;29;20451;-78
2023/10/26 17:37:39;;;;;;;29.77;20.73;;;21.40;67.40;;;;;;4979390;28;20547;-79
2023/10/26 17:51:57;;;;;;;25.87;18.73;;;21.30;67.70;;;;;;4902996;29;20468;-81
2023/10/26 17:54:37;;;;;;;25.47;18.90;;;21.30;67.40;;;;;;4925706;29;20449;-79
2023/10/26 17:57:17;;;;;;;24.50;18.27;;;21.30;67.20;;;;;;4984062;28;20462;-79
2023/10/26 18:03:55;;;;;;;29.03;20.47;;;21.30;67.30;;;;;;5003006;28;20416;-79
2023/10/26 18:06:42;;;;;;;26.33;19.30;;;21.20;67.10;;;;;;5077980;28;20469;-77
2023/10/26 18:09:46;;;;;;;27.80;19.27;;;21.20;66.80;;;;;;5086964;28;20464;-77
2023/10/26 18:12:27;;;;;;;28.43;19.00;;;21.20;67.00;;;;;;5080214;28;20500;-79
2023/10/26 18:15:17;;;;;;;25.03;19.20;;;21.20;66.90;;;;;;5078814;28;20452;-77
2023/10/26 18:17:46;;;;;;;29.47;20.40;;;21.20;66.90;;;;;;5073524;28;20472;-78
2023/10/26 18:23:05;;;;;;;30.17;21.40;;;21.20;66.60;;;;;;5073690;28;20446;-77
2023/10/26 18:29:14;;;;;;;29.33;21.20;;;21.20;67.00;;;;;;5072552;28;20467;-80
2023/10/26 18:31:55;;;;;;;29.13;21.60;;;21.10;66.50;;;;;;5080794;28;20464;-81
2023/10/26 18:35:03;;;;;;;32.77;22.17;;;21.10;66.60;;;;;;5062418;28;20419;-81
2023/10/26 19:43:15;;;;;;;38.50;24.00;;;20.80;67.60;;;;;;4987777;28;20502;-81
2023/10/26 19:46:18;;;;;;;37.00;25.03;;;20.90;68.00;;;;;;4990481;28;20536;-80
2023/10/26 19:52:35;;;;;;;44.30;24.63;;;20.90;68.10;;;;;;4984436;28;20457;-83
2023/10/26 19:55:07;;;;;;;38.83;24.97;;;20.90;67.90;;;;;;4976938;28;20481;-83
2023/10/26 19:57:35;;;;;;;41.00;25.70;;;20.90;67.80;;;;;;4975492;28;20500;-82
2023/10/26 20:00:09;;;;;;;43.93;26.27;;;20.90;67.70;;;;;;4985737;28;20449;-82
2023/10/26 20:02:37;;;;;;;45.80;26.20;;;20.80;67.70;;;;;;4979959;28;20454;-84
2023/10/26 20:05:06;;;;;;;51.80;26.00;;;20.80;67.80;;;;;;4969297;28;20434;-85
2023/10/26 20:07:34;;;;;;;42.50;24.63;;;20.80;67.90;;;;;;4986006;28;20530;-85
2023/10/26 20:10:04;;;;;;;45.17;28.30;;;20.80;67.80;;;;;;4990078;28;20442;-83
2023/10/26 20:12:32;;;;;;;44.90;26.40;;;20.80;67.80;;;;;;4967990;28;20494;-83
2023/10/26 20:15:00;;;;;;;45.60;28.07;;;20.80;67.80;;;;;;4979799;28;20451;-84
2023/10/26 20:17:30;;;;;;;41.20;26.17;;;20.80;67.70;;;;;;4971543;28;20475;-85
2023/10/26 20:20:01;;;;;;;46.27;27.17;;;20.80;67.40;;;;;;4970906;28;20453;-85
2023/10/26 20:22:29;;;;;;;43.43;26.30;;;20.80;67.60;;;;;;4977261;28;20513;-84
2023/10/26 20:24:57;;;;;;;42.63;27.30;;;20.80;67.50;;;;;;4984942;28;20446;-81
2023/10/26 20:27:25;;;;;;;43.63;27.57;;;20.80;67.30;;;;;;4979980;28;21048;-83
2023/10/26 20:29:54;;;;;;;46.57;28.90;;;20.70;67.50;;;;;;4974184;28;20454;-84
2023/10/26 20:32:22;;;;;;;47.53;27.40;;;20.70;67.20;;;;;;4980316;28;20454;-85
2023/10/26 20:34:52;;;;;;;44.10;27.63;;;20.70;67.40;;;;;;4974936;28;20482;-83
2023/10/26 20:37:23;;;;;;;43.67;26.83;;;20.70;67.40;;;;;;4970968;28;20477;-85
2023/10/26 20:39:53;;;;;;;44.90;26.67;;;20.70;67.30;;;;;;4973804;28;20460;-85
2023/10/26 20:42:26;;;;;;;42.67;26.30;;;20.70;67.20;;;;;;4979352;28;20423;-85
2023/10/26 20:45:09;;;;;;;;;;;;;;;;;;;;;
2023/10/26 20:47:47;;;;;;;42.03;26.03;;;20.70;67.30;;;;;;4975901;28;20479;-87
2023/10/26 20:50:19;;;;;;;48.17;27.30;;;20.70;67.20;;;;;;4979336;28;20452;-85
2023/10/26 20:52:51;;;;;;;44.87;26.20;;;20.70;67.30;;;;;;4989828;28;20453;-85
2023/10/26 20:55:26;;;;;;;37.87;25.10;;;20.70;67.20;;;;;;4988226;28;20438;-85
2023/10/26 20:58:07;;;;;;;42.27;26.30;;;20.70;67.20;;;;;;4985754;28;20462;-84
2023/10/26 21:00:38;;;;;;;42.93;25.63;;;20.60;67.30;;;;;;4983692;28;20446;-85
2023/10/26 21:03:21;;;;;;;43.47;25.87;;;20.60;66.90;;;;;;4981662;28;20453;-85
2023/10/26 21:05:57;;;;;;;37.00;24.87;;;20.60;67.10;;;;;;4981096;28;20447;-85
2023/10/26 21:08:28;;;;;;;42.20;24.77;;;20.60;67.00;;;;;;4975312;28;20476;-83
2023/10/26 21:11:13;;;;;;;35.03;23.20;;;20.60;66.80;;;;;;4981053;28;20442;-84
2023/10/26 21:13:42;;;;;;;43.73;24.87;;;20.60;67.20;;;;;;4975375;28;20474;-85
2023/10/26 21:16:19;;;;;;;40.63;23.63;;;20.60;67.10;;;;;;4969178;28;20938;-86
2023/10/26 21:18:51;;;;;;;38.30;23.93;;;20.60;67.00;;;;;;4975529;28;20441;-85
2023/10/26 21:21:27;;;;;;;35.87;23.53;;;20.60;66.90;;;;;;4981593;28;20453;-85
2023/10/26 21:24:01;;;;;;;38.30;22.70;;;20.60;66.80;;;;;;4971730;28;20447;-82
2023/10/26 21:26:29;;;;;;;37.10;22.30;;;20.60;67.20;;;;;;4979882;28;20446;-84
2023/10/26 21:28:57;;;;;;;29.03;21.03;;;20.60;66.80;;;;;;4984855;28;20446;-83
2023/10/26 21:31:25;;;;;;;30.83;21.33;;;20.60;67.20;;;;;;4962908;28;20471;-82
2023/10/26 21:33:53;;;;;;;36.03;21.50;;;20.60;67.30;;;;;;4979836;28;20494;-80
2023/10/26 21:36:24;;;;;;;33.37;21.23;;;20.50;67.20;;;;;;4989819;28;20454;-79
2023/10/26 21:38:52;;;;;;;33.00;21.80;;;20.60;67.00;;;;;;4978071;28;20439;-81
2023/10/26 21:41:20;;;;;;;34.47;21.20;;;20.50;67.30;;;;;;4976333;28;20459;-81
2023/10/26 21:43:48;;;;;;;34.57;22.10;;;20.50;67.50;;;;;;4971000;28;20446;-81
2023/10/26 21:46:16;;;;;;;32.10;21.40;;;20.50;67.40;;;;;;4974218;28;20442;-80
2023/10/26 21:48:44;;;;;;;34.87;22.13;;;20.60;67.70;;;;;;4973811;28;20599;-81
2023/10/26 21:51:12;;;;;;;29.43;20.40;;;20.60;67.80;;;;;;4971835;28;20451;-81
2023/10/26 21:53:41;;;;;;;35.60;20.87;;;20.60;67.80;;;;;;4972545;28;20446;-81
2023/10/26 21:56:09;;;;;;;34.40;20.87;;;20.50;67.70;;;;;;4963751;28;20488;-81
2023/10/26 21:58:37;;;;;;;31.87;20.00;;;20.50;67.50;;;;;;4966721;28;20538;-80
2023/10/26 22:01:06;;;;;;;36.37;21.27;;;20.50;68.00;;;;;;4983581;28;20486;-82
2023/10/26 22:03:35;;;;;;;32.93;20.07;;;20.50;68.20;;;;;;4969404;28;20525;-80
2023/10/26 22:06:03;;;;;;;33.57;20.10;;;20.50;67.80;;;;;;4974878;28;20473;-80
2023/10/26 22:08:31;;;;;;;35.37;19.87;;;20.50;67.80;;;;;;4971071;28;20491;-80
2023/10/26 22:11:01;;;;;;;32.13;19.30;;;20.50;68.10;;;;;;4973472;28;20451;-80
2023/10/26 22:13:29;;;;;;;31.90;19.93;;;20.50;68.10;;;;;;4970481;28;20461;-80
2023/10/26 22:15:56;;;;;;;34.23;19.70;;;20.50;68.40;;;;;;4982997;28;20482;-80
2023/10/26 22:18:24;;;;;;;31.97;19.60;;;20.50;68.10;;;;;;4978613;28;20462;-80
2023/10/26 22:20:53;;;;;;;30.37;18.50;;;20.50;68.20;;;;;;4969431;28;20471;-80
2023/10/26 22:23:21;;;;;;;29.13;18.57;;;20.50;68.30;;;;;;4974921;28;20445;-80
2023/10/26 22:25:48;;;;;;;32.60;18.87;;;20.50;68.40;;;;;;4972142;28;20442;-80
2023/10/26 22:28:18;;;;;;;30.37;18.40;;;20.50;68.40;;;;;;4963008;28;20555;-80
2023/10/26 22:30:46;;;;;;;29.00;16.97;;;20.50;68.40;;;;;;4980328;28;20466;-80
2023/10/26 22:33:15;;;;;;;31.73;18.53;;;20.50;68.70;;;;;;4973209;28;20465;-78